createdAt,value
2019-03-27T00:00:58.806Z,14.30
2019-03-27T00:03:26.848Z,14.63
2019-03-27T00:05:54.896Z,14.60
2019-03-27T00:10:58.056Z,14.13
2019-03-27T00:13:26.116Z,13.93
2019-03-27T00:15:54.164Z,15.00
2019-03-27T00:18:22.216Z,14.30
2019-03-27T00:20:51.028Z,14.77
2019-03-27T00:23:19.110Z,14.73
2019-03-27T00:25:47.158Z,14.77
2019-03-27T00:28:15.218Z,14.32
2019-03-27T00:30:44.042Z,15.32
2019-03-27T00:33:12.083Z,15.00
2019-03-27T00:35:40.911Z,15.27
2019-03-27T00:38:09.038Z,15.13
2019-03-27T00:40:37.948Z,14.80
2019-03-27T00:43:05.993Z,15.13
2019-03-27T00:45:34.802Z,15.80
2019-03-27T00:48:02.834Z,15.18
2019-03-27T00:50:30.879Z,15.23
2019-03-27T00:52:58.933Z,15.18
2019-03-27T00:55:26.998Z,15.63
2019-03-27T00:57:55.027Z,15.70
2019-03-27T01:00:26.932Z,15.23
2019-03-27T01:02:54.977Z,15.65
2019-03-27T01:05:23.055Z,15.30
2019-03-27T01:07:51.099Z,15.00
2019-03-27T01:10:19.920Z,14.75
2019-03-27T01:12:47.959Z,15.27
2019-03-27T01:15:16.771Z,15.13
2019-03-27T01:17:44.825Z,15.90
2019-03-27T01:20:13.636Z,15.55
2019-03-27T01:22:41.684Z,16.35
2019-03-27T01:25:10.511Z,16.23
2019-03-27T01:27:38.535Z,16.37
2019-03-27T01:30:07.357Z,17.20
2019-03-27T01:32:35.398Z,17.20
2019-03-27T01:35:03.432Z,16.85
2019-03-27T01:37:31.554Z,16.77
2019-03-27T01:39:59.614Z,16.27
2019-03-27T01:42:27.701Z,16.85
2019-03-27T01:44:55.745Z,17.73
2019-03-27T01:47:24.558Z,17.55
2019-03-27T01:49:52.625Z,17.42
2019-03-27T01:52:20.693Z,18.17
2019-03-27T01:54:48.823Z,17.77
2019-03-27T01:57:16.780Z,18.05
2019-03-27T01:59:44.837Z,17.98
2019-03-27T02:02:12.892Z,18.20
2019-03-27T02:04:41.673Z,18.13
2019-03-27T02:07:09.718Z,17.98
2019-03-27T02:09:37.770Z,19.27
2019-03-27T02:12:05.791Z,18.93
2019-03-27T02:14:33.831Z,19.23
2019-03-27T02:17:01.883Z,19.40
2019-03-27T02:19:30.703Z,20.20
2019-03-27T02:21:58.755Z,20.58
2019-03-27T02:24:27.598Z,20.23
2019-03-27T02:26:55.760Z,20.15
2019-03-27T02:29:23.799Z,20.48
2019-03-27T02:31:51.851Z,20.05
2019-03-27T02:34:20.656Z,20.23
2019-03-27T02:36:48.719Z,21.02
2019-03-27T02:39:16.786Z,20.97
2019-03-27T02:41:44.845Z,22.35
2019-03-27T02:44:13.644Z,21.75
2019-03-27T02:46:42.464Z,21.20
2019-03-27T02:49:10.513Z,21.80
2019-03-27T02:51:38.587Z,22.40
2019-03-27T02:54:06.648Z,23.25
2019-03-27T02:56:35.456Z,22.35
2019-03-27T02:59:03.509Z,22.40
2019-03-27T03:01:32.337Z,23.17
2019-03-27T03:04:00.347Z,23.07
2019-03-27T03:06:29.169Z,22.95
2019-03-27T03:08:57.214Z,23.27
2019-03-27T03:11:26.046Z,22.65
2019-03-27T03:13:54.096Z,22.83
2019-03-27T03:16:22.146Z,23.30
2019-03-27T03:18:51.069Z,23.65
2019-03-27T03:21:19.126Z,24.25
2019-03-27T03:23:47.305Z,24.42
2019-03-27T03:26:15.259Z,24.50
2019-03-27T03:28:43.307Z,23.70
2019-03-27T03:31:11.362Z,24.57
2019-03-27T03:33:39.460Z,25.02
2019-03-27T03:36:08.288Z,24.00
2019-03-27T03:38:36.340Z,23.67
2019-03-27T03:41:05.226Z,24.37
2019-03-27T03:43:33.273Z,24.67
2019-03-27T03:46:02.107Z,25.25
2019-03-27T03:48:30.165Z,26.70
2019-03-27T03:50:58.204Z,26.40
2019-03-27T03:53:27.026Z,25.80
2019-03-27T03:55:55.076Z,26.52
2019-03-27T03:58:23.144Z,25.48
2019-03-27T04:00:51.203Z,27.40
2019-03-27T04:03:19.251Z,27.30
2019-03-27T04:05:47.372Z,27.02
2019-03-27T04:08:15.427Z,26.87
2019-03-27T04:10:43.819Z,27.25
2019-03-27T04:13:12.506Z,27.98
2019-03-27T04:15:40.544Z,25.80
2019-03-27T04:18:08.633Z,26.50
2019-03-27T04:20:37.421Z,26.13
2019-03-27T04:23:05.491Z,26.27
2019-03-27T04:26:00.342Z,26.75
2019-03-27T04:28:02.353Z,27.65
2019-03-27T04:30:30.389Z,28.60
2019-03-27T04:32:59.215Z,28.10
2019-03-27T04:35:27.273Z,26.58
2019-03-27T04:37:55.296Z,27.50
2019-03-27T04:40:23.333Z,26.67
2019-03-27T04:42:51.388Z,27.02
2019-03-27T04:45:19.462Z,26.67
2019-03-27T04:47:47.544Z,27.10
2019-03-27T04:50:15.535Z,27.00
2019-03-27T04:52:43.600Z,26.95
2019-03-27T04:55:11.631Z,29.42
2019-03-27T04:57:39.721Z,27.37
2019-03-27T05:00:07.767Z,27.75
2019-03-27T05:02:35.787Z,28.37
2019-03-27T05:05:04.549Z,27.62
2019-03-27T05:07:32.701Z,27.23
2019-03-27T05:10:00.746Z,28.75
2019-03-27T05:12:28.778Z,28.40
2019-03-27T05:14:56.910Z,29.60
2019-03-27T05:17:24.975Z,28.95
2019-03-27T05:19:53.031Z,29.92
2019-03-27T05:22:21.950Z,27.90
2019-03-27T05:24:49.991Z,29.00
2019-03-27T05:27:18.805Z,29.75
2019-03-27T05:29:46.847Z,28.05
2019-03-27T05:32:15.770Z,29.25
2019-03-27T05:34:44.548Z,29.20
2019-03-27T05:37:12.623Z,28.38
2019-03-27T05:39:40.674Z,29.42
2019-03-27T05:42:09.500Z,28.05
2019-03-27T05:44:37.534Z,29.90
2019-03-27T05:47:06.364Z,29.65
2019-03-27T05:49:34.420Z,30.50
2019-03-27T05:52:02.479Z,30.23
2019-03-27T05:54:30.515Z,30.40
2019-03-27T05:56:59.347Z,29.48
2019-03-27T05:59:28.131Z,30.17
2019-03-27T06:01:56.179Z,30.23
2019-03-27T06:04:25.007Z,29.92
2019-03-27T06:06:53.151Z,29.63
2019-03-27T06:09:21.210Z,30.88
2019-03-27T06:11:50.107Z,30.42
2019-03-27T06:14:18.159Z,31.05
2019-03-27T06:16:46.982Z,30.08
2019-03-27T06:19:15.027Z,30.25
2019-03-27T06:21:43.847Z,29.92
2019-03-27T06:24:12.003Z,29.48
2019-03-27T06:26:40.047Z,29.70
2019-03-27T06:29:08.866Z,29.73
2019-03-27T06:31:36.907Z,29.70
2019-03-27T06:34:05.818Z,28.98
2019-03-27T06:36:33.855Z,30.40
2019-03-27T06:39:01.927Z,31.65
2019-03-27T06:41:30.050Z,31.00
2019-03-27T06:43:58.104Z,30.23
2019-03-27T06:46:26.159Z,31.27
2019-03-27T06:48:54.988Z,31.12
2019-03-27T06:51:25.098Z,30.88
2019-03-27T06:53:51.111Z,31.15
2019-03-27T06:56:19.158Z,32.30
2019-03-27T06:58:54.561Z,32.22
2019-03-27T07:01:16.267Z,31.70
2019-03-27T07:03:44.291Z,30.93
2019-03-27T07:06:13.099Z,30.95
2019-03-27T07:08:41.146Z,29.45
2019-03-27T07:11:09.967Z,30.48
2019-03-27T07:13:38.023Z,30.27
2019-03-27T07:16:06.071Z,31.15
2019-03-27T07:18:40.301Z,31.55
2019-03-27T07:21:03.034Z,36.30
2019-03-27T07:23:31.858Z,31.62
2019-03-27T07:25:59.903Z,32.80
2019-03-27T07:28:27.930Z,33.03
2019-03-27T07:30:56.063Z,32.55
2019-03-27T07:33:24.122Z,31.77
2019-03-27T07:35:53.739Z,32.95
2019-03-27T07:38:21.787Z,31.87
2019-03-27T07:40:50.607Z,31.35
2019-03-27T07:43:19.412Z,31.40
2019-03-27T07:45:47.588Z,32.15
2019-03-27T07:48:15.638Z,32.92
2019-03-27T07:50:43.709Z,32.83
2019-03-27T07:53:11.781Z,33.33
2019-03-27T07:55:39.861Z,31.87
2019-03-27T07:58:08.027Z,31.65
2019-03-27T08:00:36.095Z,33.35
2019-03-27T08:03:04.899Z,32.55
2019-03-27T08:05:32.943Z,31.87
2019-03-27T08:08:01.766Z,32.88
2019-03-27T08:10:29.810Z,31.30
2019-03-27T08:12:57.960Z,30.33
2019-03-27T08:15:25.990Z,32.03
2019-03-27T08:17:54.226Z,31.15
2019-03-27T08:20:22.291Z,28.50
2019-03-27T08:22:51.912Z,27.27
2019-03-27T08:25:19.993Z,28.85
2019-03-27T08:27:49.374Z,29.27
2019-03-27T08:30:18.175Z,26.63
2019-03-27T08:32:46.224Z,27.15
2019-03-27T08:35:15.143Z,26.15
2019-03-27T08:37:43.198Z,26.73
2019-03-27T08:40:11.271Z,25.50
2019-03-27T08:42:39.333Z,24.17
2019-03-27T08:45:07.376Z,25.30
2019-03-27T08:47:35.428Z,24.37
2019-03-27T08:50:05.371Z,25.33
2019-03-27T08:52:34.176Z,25.25
2019-03-27T08:55:02.222Z,23.75
2019-03-27T08:57:30.257Z,20.55
2019-03-27T08:59:58.315Z,18.45
2019-03-27T09:02:26.362Z,18.73
2019-03-27T09:04:54.434Z,19.30
2019-03-27T09:07:22.487Z,18.85
2019-03-27T09:09:50.503Z,17.53
2019-03-27T09:12:18.649Z,17.87
2019-03-27T09:14:46.631Z,17.67
2019-03-27T09:17:14.667Z,16.80
2019-03-27T09:19:43.576Z,15.35
2019-03-27T09:22:11.623Z,16.45
2019-03-27T09:24:39.723Z,15.97
2019-03-27T09:27:07.758Z,15.32
2019-03-27T09:29:36.586Z,14.00
2019-03-27T09:32:04.622Z,14.43
2019-03-27T09:34:33.446Z,14.48
2019-03-27T09:37:02.324Z,13.93
2019-03-27T09:39:30.384Z,14.07
2019-03-27T09:41:59.589Z,14.07
2019-03-27T09:44:28.374Z,14.73
2019-03-27T09:46:56.427Z,13.40
2019-03-27T09:49:25.247Z,13.15
2019-03-27T09:51:53.296Z,13.70
2019-03-27T09:54:22.119Z,13.68
2019-03-27T09:56:50.172Z,12.77
2019-03-27T09:59:18.222Z,11.40
2019-03-27T10:01:47.849Z,11.37
2019-03-27T10:04:15.955Z,12.27
2019-03-27T10:06:43.972Z,13.37
2019-03-27T10:09:12.126Z,11.43
2019-03-27T10:11:40.843Z,11.32
2019-03-27T10:14:09.011Z,11.93
2019-03-27T10:16:37.082Z,11.30
2019-03-27T10:19:05.174Z,11.82
2019-03-27T10:21:33.259Z,11.68
2019-03-27T10:24:01.296Z,12.65
2019-03-27T10:26:29.368Z,12.07
2019-03-27T10:28:58.152Z,12.80
2019-03-27T10:31:26.521Z,12.23
2019-03-27T10:33:55.340Z,12.02
2019-03-27T10:36:23.395Z,12.70
2019-03-27T10:38:51.475Z,12.50
2019-03-27T10:41:19.535Z,12.73
2019-03-27T10:43:47.578Z,12.68
2019-03-27T10:46:16.403Z,12.07
2019-03-27T10:48:52.458Z,12.32
2019-03-27T10:51:12.534Z,11.48
2019-03-27T10:53:40.611Z,10.70
2019-03-27T10:56:08.664Z,10.30
2019-03-27T10:58:36.706Z,10.40
2019-03-27T11:01:07.184Z,11.20
2019-03-27T11:03:33.583Z,10.05
2019-03-27T11:06:02.395Z,9.73
2019-03-27T11:08:30.440Z,9.00
2019-03-27T11:10:59.271Z,9.98
2019-03-27T11:13:27.315Z,8.30
2019-03-27T11:15:56.357Z,8.57
2019-03-27T11:18:24.409Z,8.40
2019-03-27T11:20:52.472Z,8.27
2019-03-27T11:23:20.506Z,8.50
2019-03-27T11:25:48.547Z,8.40
2019-03-27T11:28:16.596Z,8.25
2019-03-27T11:30:48.140Z,8.40
2019-03-27T11:33:12.959Z,7.97
2019-03-27T11:35:41.079Z,8.00
2019-03-27T11:38:09.124Z,8.25
2019-03-27T11:40:37.308Z,9.10
2019-03-27T11:43:06.107Z,8.20
2019-03-27T11:45:34.151Z,7.68
2019-03-27T11:48:02.164Z,8.00
2019-03-27T11:50:43.764Z,8.20
2019-03-27T11:52:58.409Z,7.65
2019-03-27T11:55:27.390Z,7.30
2019-03-27T11:57:55.424Z,5.32
2019-03-27T12:00:23.500Z,5.80
2019-03-27T12:02:51.817Z,6.00
2019-03-27T12:05:19.914Z,6.95
2019-03-27T12:07:48.155Z,6.18
2019-03-27T12:10:16.203Z,6.35
2019-03-27T12:12:48.032Z,6.90
2019-03-27T12:15:13.049Z,7.00
2019-03-27T12:17:41.915Z,7.32
2019-03-27T12:20:09.942Z,6.85
2019-03-27T12:22:37.988Z,6.70
2019-03-27T12:25:06.892Z,7.65
2019-03-27T12:27:34.902Z,6.60
2019-03-27T12:30:02.977Z,6.70
2019-03-27T12:32:31.043Z,6.93
2019-03-27T12:34:59.053Z,6.55
2019-03-27T12:37:27.907Z,7.00
2019-03-27T12:39:55.933Z,6.70
2019-03-27T12:42:23.975Z,6.53
2019-03-27T12:44:52.907Z,6.50
2019-03-27T12:47:20.946Z,6.12
2019-03-27T12:49:51.982Z,6.12
2019-03-27T12:52:17.813Z,12.48
2019-03-27T12:54:46.601Z,13.65
2019-03-27T12:57:14.666Z,13.10
2019-03-27T12:59:43.487Z,13.02
2019-03-27T13:02:11.634Z,13.25
2019-03-27T13:04:39.682Z,13.38
2019-03-27T13:07:07.707Z,13.37
2019-03-27T13:09:35.748Z,13.00
2019-03-27T13:12:03.814Z,13.13
2019-03-27T13:14:31.891Z,12.55
2019-03-27T13:16:59.950Z,12.52
2019-03-27T13:19:28.003Z,13.20
2019-03-27T13:21:56.840Z,12.93
2019-03-27T13:24:24.900Z,12.45
2019-03-27T13:26:52.959Z,12.32
2019-03-27T13:29:21.032Z,11.75
2019-03-27T13:31:49.091Z,11.82
2019-03-27T13:34:17.138Z,12.30
2019-03-27T13:36:45.967Z,12.52
2019-03-27T13:39:14.830Z,13.50
2019-03-27T13:41:43.659Z,13.02
2019-03-27T13:44:11.702Z,13.27
2019-03-27T13:46:39.802Z,13.20
2019-03-27T13:49:07.778Z,13.20
2019-03-27T13:51:40.785Z,13.48
2019-03-27T13:54:03.896Z,13.88
2019-03-27T13:56:32.683Z,13.03
2019-03-27T13:59:00.748Z,13.90
2019-03-27T14:01:29.632Z,16.40
2019-03-27T14:03:57.686Z,15.40
2019-03-27T14:06:26.490Z,16.55
2019-03-27T14:08:54.563Z,12.95
2019-03-27T14:11:22.606Z,15.18
2019-03-27T14:13:50.708Z,13.45
2019-03-27T14:16:18.750Z,13.90
2019-03-27T14:18:48.911Z,13.38
2019-03-27T14:21:15.605Z,13.88
2019-03-27T14:23:44.532Z,13.32
2019-03-27T14:26:13.316Z,13.27
2019-03-27T14:28:41.380Z,13.13
2019-03-27T14:31:09.432Z,12.73
2019-03-27T14:33:38.239Z,12.88
2019-03-27T14:36:06.335Z,12.48
2019-03-27T14:38:34.386Z,12.90
2019-03-27T14:41:02.423Z,12.80
2019-03-27T14:43:31.234Z,12.05
2019-03-27T14:45:59.285Z,12.30
2019-03-27T14:48:28.205Z,12.68
2019-03-27T14:50:56.249Z,12.48
2019-03-27T14:53:25.170Z,12.20
2019-03-27T14:55:53.211Z,12.30
2019-03-27T14:58:21.298Z,11.90
2019-03-27T15:00:49.404Z,12.52
2019-03-27T15:03:17.427Z,12.15
2019-03-27T15:05:45.496Z,12.50
2019-03-27T15:08:14.303Z,11.85
2019-03-27T15:10:43.092Z,11.60
2019-03-27T15:13:11.428Z,11.50
2019-03-27T15:15:39.458Z,11.38
2019-03-27T15:18:07.653Z,11.32
2019-03-27T15:20:35.661Z,12.40
2019-03-27T15:23:04.478Z,14.45
2019-03-27T15:25:32.498Z,10.37
2019-03-27T15:28:00.599Z,11.77
2019-03-27T15:30:28.677Z,10.38
2019-03-27T15:32:57.807Z,11.60
2019-03-27T15:35:25.854Z,11.20
2019-03-27T15:37:53.899Z,10.50
2019-03-27T15:40:37.253Z,10.33
2019-03-27T15:43:05.326Z,11.20
2019-03-27T15:45:33.450Z,11.60
2019-03-27T15:48:02.291Z,12.40
2019-03-27T15:50:30.325Z,11.88
2019-03-27T15:52:58.393Z,11.93
2019-03-27T15:55:27.299Z,11.93
2019-03-27T15:57:55.616Z,12.15
2019-03-27T16:00:23.668Z,11.38
2019-03-27T16:02:51.713Z,10.95
2019-03-27T16:05:19.772Z,11.70
2019-03-27T16:07:48.914Z,11.80
2019-03-27T16:10:18.334Z,11.50
2019-03-27T16:12:45.012Z,11.27
2019-03-27T16:15:13.067Z,11.77
2019-03-27T16:17:41.886Z,11.73
2019-03-27T16:20:09.934Z,11.50
2019-03-27T16:22:49.988Z,12.10
2019-03-27T16:25:06.109Z,11.57
2019-03-27T16:27:34.071Z,11.12
2019-03-27T16:30:02.133Z,11.23
2019-03-27T16:32:30.920Z,11.03
2019-03-27T16:34:59.034Z,10.57
2019-03-27T16:37:27.080Z,11.80
2019-03-27T16:39:55.215Z,11.98
2019-03-27T16:42:23.292Z,12.07
2019-03-27T16:44:51.364Z,13.15
2019-03-27T16:47:20.142Z,12.65
2019-03-27T16:49:48.191Z,12.40
2019-03-27T16:52:16.243Z,12.47
2019-03-27T16:54:44.364Z,12.05
2019-03-27T16:57:12.413Z,11.00
2019-03-27T16:59:41.227Z,11.20
2019-03-27T17:02:09.285Z,13.13
2019-03-27T17:04:37.342Z,11.82
2019-03-27T17:07:06.160Z,11.75
2019-03-27T17:09:34.228Z,11.80
2019-03-27T17:12:03.019Z,12.10
2019-03-27T17:14:31.076Z,12.02
2019-03-27T17:16:59.210Z,12.27
2019-03-27T17:19:27.247Z,12.13
2019-03-27T17:21:55.410Z,11.52
2019-03-27T17:24:23.459Z,11.40
2019-03-27T17:26:52.376Z,11.30
2019-03-27T17:29:20.415Z,10.90
2019-03-27T17:31:49.238Z,10.80
2019-03-27T17:34:17.294Z,11.70
2019-03-27T17:36:45.363Z,11.95
2019-03-27T17:39:14.126Z,11.47
2019-03-27T17:41:42.175Z,12.02
2019-03-27T17:44:10.182Z,11.50
2019-03-27T17:46:38.257Z,12.20
2019-03-27T17:49:06.306Z,11.70
2019-03-27T17:51:34.405Z,11.67
2019-03-27T17:54:02.516Z,11.75
2019-03-27T17:56:31.275Z,12.20
2019-03-27T17:58:59.321Z,12.02
2019-03-27T18:01:27.370Z,11.77
2019-03-27T18:03:56.179Z,12.10
2019-03-27T18:06:24.226Z,12.30
2019-03-27T18:08:53.054Z,12.52
2019-03-27T18:11:21.111Z,12.57
2019-03-27T18:13:49.143Z,14.23
2019-03-27T18:16:17.969Z,16.52
2019-03-27T18:18:46.009Z,18.52
2019-03-27T18:21:14.840Z,19.05
2019-03-27T18:23:46.124Z,17.42
2019-03-27T18:26:11.776Z,16.12
2019-03-27T18:28:39.829Z,14.50
2019-03-27T18:31:07.927Z,14.57
2019-03-27T18:33:35.967Z,14.25
2019-03-27T18:36:04.818Z,13.60
2019-03-27T18:38:32.887Z,14.30
2019-03-27T18:41:00.938Z,14.30
2019-03-27T18:43:29.007Z,14.30
2019-03-27T18:45:57.047Z,14.20
2019-03-27T18:48:25.950Z,14.48
2019-03-27T18:50:54.025Z,14.00
2019-03-27T18:53:22.071Z,15.05
2019-03-27T18:55:50.890Z,15.73
2019-03-27T18:58:19.684Z,15.80
2019-03-27T19:00:47.720Z,14.95
2019-03-27T19:03:16.645Z,16.08
2019-03-27T19:05:44.698Z,15.90
2019-03-27T19:08:12.748Z,15.25
2019-03-27T19:10:41.563Z,15.38
2019-03-27T19:13:09.665Z,15.38
2019-03-27T19:15:37.706Z,15.80
2019-03-27T19:18:06.553Z,15.30
2019-03-27T19:20:34.668Z,15.20
2019-03-27T19:23:02.724Z,15.43
2019-03-27T19:25:31.593Z,15.53
2019-03-27T19:27:59.592Z,14.90
2019-03-27T19:30:27.778Z,13.88
2019-03-27T19:32:55.863Z,13.97
2019-03-27T19:35:24.657Z,13.93
2019-03-27T19:37:52.748Z,14.48
2019-03-27T19:40:20.758Z,14.23
2019-03-27T19:42:48.852Z,14.55
2019-03-27T19:45:16.916Z,15.43
2019-03-27T19:47:45.688Z,14.40
2019-03-27T19:50:13.765Z,14.82
2019-03-27T19:52:41.829Z,15.43
2019-03-27T19:55:09.923Z,16.15
2019-03-27T19:57:37.939Z,16.55
2019-03-27T20:00:06.751Z,16.92
2019-03-27T20:02:34.799Z,17.75
2019-03-27T20:05:03.615Z,19.73
2019-03-27T20:07:36.223Z,20.63
2019-03-27T20:10:00.461Z,21.00
2019-03-27T20:12:28.509Z,20.80
2019-03-27T20:15:10.794Z,18.95
2019-03-27T20:17:25.508Z,17.42
2019-03-27T20:19:53.559Z,17.00
2019-03-27T20:22:21.638Z,16.23
2019-03-27T20:24:49.688Z,16.27
2019-03-27T20:27:18.613Z,16.50
2019-03-27T20:29:46.764Z,16.20
2019-03-27T20:32:14.746Z,16.05
2019-03-27T20:34:42.801Z,16.50
2019-03-27T20:37:11.603Z,16.98
2019-03-27T20:39:42.531Z,17.42
2019-03-27T20:42:07.712Z,16.80
2019-03-27T20:44:35.736Z,16.93
2019-03-27T20:47:03.796Z,17.15
2019-03-27T20:49:31.848Z,17.25
2019-03-27T20:52:00.627Z,16.90
2019-03-27T20:54:28.680Z,16.87
2019-03-27T20:56:57.491Z,17.05
2019-03-27T20:59:25.568Z,16.70
2019-03-27T21:01:53.645Z,16.48
2019-03-27T21:04:21.682Z,16.77
2019-03-27T21:06:50.620Z,17.25
2019-03-27T21:09:18.643Z,17.15
2019-03-27T21:11:46.673Z,17.73
2019-03-27T21:14:14.731Z,16.58
2019-03-27T21:16:42.774Z,16.83
2019-03-27T21:19:10.860Z,16.50
2019-03-27T21:21:41.737Z,16.45
2019-03-27T21:24:06.961Z,16.98
2019-03-27T21:26:35.767Z,16.80
2019-03-27T21:29:03.828Z,16.92
2019-03-27T21:31:33.510Z,16.83
2019-03-27T21:34:01.555Z,16.85
2019-03-27T21:36:29.599Z,17.17
2019-03-27T21:38:57.663Z,17.42
2019-03-27T21:41:26.447Z,17.85
2019-03-27T21:43:54.520Z,17.45
2019-03-27T21:46:22.600Z,18.25
2019-03-27T21:48:50.646Z,18.60
2019-03-27T21:51:18.726Z,18.52
2019-03-27T21:53:50.589Z,18.33
2019-03-27T21:56:15.690Z,18.33
2019-03-27T21:58:43.742Z,19.12
2019-03-27T22:01:12.565Z,19.17
2019-03-27T22:03:40.594Z,18.37
2019-03-27T22:06:09.525Z,18.27
2019-03-27T22:08:37.555Z,18.42
2019-03-27T22:11:06.365Z,18.35
2019-03-27T22:13:34.439Z,16.67
2019-03-27T22:16:03.247Z,18.10
2019-03-27T22:18:31.267Z,19.02
2019-03-27T22:21:00.087Z,18.58
2019-03-27T22:23:28.129Z,18.60
2019-03-27T22:25:56.943Z,18.20
2019-03-27T22:28:24.999Z,18.45
2019-03-27T22:30:53.051Z,18.05
2019-03-27T22:33:21.851Z,17.33
2019-03-27T22:35:50.674Z,16.92
2019-03-27T22:38:18.731Z,18.73
2019-03-27T22:40:46.786Z,17.62
2019-03-27T22:43:14.832Z,18.25
2019-03-27T22:45:42.896Z,17.80
2019-03-27T22:48:10.897Z,17.57
2019-03-27T22:50:38.959Z,18.05
2019-03-27T22:53:07.770Z,17.50
2019-03-27T22:55:48.604Z,18.90
2019-03-27T22:58:04.642Z,19.67
2019-03-27T23:00:33.495Z,18.95
2019-03-27T23:03:02.405Z,18.12
2019-03-27T23:05:30.469Z,18.42
2019-03-27T23:07:58.612Z,18.10
2019-03-27T23:10:26.653Z,18.37
2019-03-27T23:12:54.695Z,17.58
2019-03-27T23:15:22.760Z,17.90
2019-03-27T23:17:50.800Z,18.08
2019-03-27T23:20:19.614Z,18.10
2019-03-27T23:22:48.396Z,18.47
2019-03-27T23:25:16.454Z,17.27
2019-03-27T23:27:45.368Z,17.67
2019-03-27T23:30:13.479Z,17.58
2019-03-27T23:32:41.499Z,18.45
2019-03-27T23:35:09.583Z,17.95
2019-03-27T23:37:37.601Z,18.33
2019-03-27T23:40:05.657Z,17.67
2019-03-27T23:42:34.139Z,18.40
2019-03-27T23:45:01.840Z,18.42
2019-03-27T23:47:29.880Z,19.20
2019-03-27T23:49:57.983Z,18.37
2019-03-27T23:52:26.054Z,18.20
2019-03-27T23:54:54.141Z,18.70
2019-03-27T23:57:22.189Z,18.73
2019-03-27T23:59:50.271Z,18.85
